Terminal Aerodrome Forecast
Issued by NWS

Home | Current Version | Previous Version | Text Only | Print | Product List | Glossary On
Versions: 1 2 3 4 5 6 7 8 9 10 11 12 13 14 15 16 17 18 19 20 21 22 23
000
FTUS41 KGYX 040520
TAFLEB
TAF
KLEB 040520Z 0406/0506 00000KT 4SM BR SCT250
     FM041000 00000KT 1/4SM FG OVC001
     FM041300 00000KT 4SM BR OVC003
     FM041400 04005KT P6SM SCT250
     FM042100 12004KT P6SM SKC
     FM050000 00000KT P6SM SKC=

USA.gov is the U.S. government's official web portal to all federal, state and local government web resources and services.